Latest Coastal Weather Observations for Lake Macquarie - Cooranbong

IDN60701

Issued at 4:02 pm EDT Monday 1 March 2021 (issued every 10 minutes, with the page automatically refreshed every 10 minutes)

About coastal observations | Map of coastal stations | Coastal observations for NSW | Marine services | Other Formats
Station Details ID: 061412 Name: LAKE MACQUARIE AWS Lat: -33.09 Lon: 151.46 Height: 6.0 m
Data from the previous 72 hours. | See also: Recent months at Lake Macquarie - Cooranbong
Date/Time
EDT
Wind Sea
Height
m
Swell Vis
km
Cloud Weather Temp
°C
Press
MSL
hPa
Rain since
9am
mm
Dir  Spd
kts
Gust
kts
Height
m
Period
s
Dir
01/04:00pm NNE 5 8 - - - - - - - 32.0 1005.6 0.0
01/03:30pm NNE 5 7 - - - - - - - 31.6 1006.3 0.0
01/03:00pm ESE 4 10 - - - - - - - 30.8 1006.8 0.0
01/02:30pm ESE 5 9 - - - - - - - 30.1 1007.5 0.0
01/02:00pm NNE 2 6 - - - - - - - 30.5 1008.0 0.0
01/01:30pm NNE 3 6 - - - - - - - 29.7 1008.4 0.0
01/01:00pm N 3 8 - - - - - - - 29.7 1008.8 0.0
01/12:30pm NNE 5 9 - - - - - - - 28.7 1009.3 0.0
01/12:00pm NNE 4 10 - - - - - - - 28.0 1009.8 0.0
01/11:30am N 3 7 - - - - - - - 27.4 1010.3 0.0
01/11:00am NE 5 10 - - - - - - - 27.3 1010.7 0.0
01/10:30am N 5 9 - - - - - - - 26.6 1010.8 0.0
01/10:00am CALM 0 1 - - - - - - - 25.4 1011.1 0.0
01/09:30am ESE 1 3 - - - - - - - 25.6 1011.2 0.0
01/09:00am ESE 1 2 - - - - - - - 24.4 1011.0 0.0
01/08:30am CALM 0 0 - - - - - - - 23.0 1010.9 0.0
01/08:00am CALM 0 0 - - - - - - - 21.8 1010.8 0.0
01/07:30am CALM 0 0 - - - - - - - 20.6 1010.6 0.0
01/07:00am CALM 0 0 - - - - - - - 20.4 1010.7 0.0
01/06:30am CALM 0 0 - - - - - - - 20.6 1010.7 0.0
01/06:00am CALM 0 0 - - - - - - - 20.5 1010.4 0.0
01/05:30am CALM 0 0 - - - - - - - 20.7 1010.2 0.0
01/05:00am CALM 0 0 - - - - - - - 20.6 1010.1 0.0
01/04:30am CALM 0 0 - - - - - - - 21.0 1010.0 0.0
01/04:00am CALM 0 0 - - - - - - - 21.4 1010.1 0.0
01/03:30am CALM 0 1 - - - - - - - 21.8 1010.6 0.0
01/03:00am ESE 2 3 - - - - - - - 21.9 1010.8 0.0
01/02:30am CALM 0 0 - - - - - - - 21.8 1010.7 0.0
01/02:00am CALM 0 0 - - - - - - - 21.7 1011.0 0.0
01/01:30am ESE 1 2 - - - - - - - 21.8 1011.4 0.0
01/01:00am CALM 0 1 - - - - - - - 21.9 1011.4 0.0
01/12:30am CALM 0 0 - - - - - - - 21.9 1011.6 0.0
01/12:00am CALM 0 0 - - - - - - - 22.1 1011.7 0.0
 
Date/Time
EDT
Wind Sea
Height
m
Swell Vis
km
Cloud Weather Temp
°C
Press
MSL
hPa
Rain since
9am
mm
Dir  Spd
kts
Gust
kts
Height
m
Period
s
Dir
28/11:30pm CALM 0 0 - - - - - - - 22.2 1011.6 0.0
28/11:00pm CALM 0 0 - - - - - - - 22.4 1011.7 0.0
28/10:30pm CALM 0 1 - - - - - - - 22.4 1011.7 0.0
28/10:00pm CALM 0 0 - - - - - - - 22.5 1011.6 0.0
28/09:30pm CALM 0 0 - - - - - - - 22.4 1011.3 0.0
28/09:00pm CALM 0 0 - - - - - - - 22.5 1011.1 0.0
28/08:30pm CALM 0 0 - - - - - - - 23.2 1010.9 0.0
28/08:00pm ESE 1 3 - - - - - - - 23.3 1010.7 0.0
28/07:30pm E 2 4 - - - - - - - 23.8 1010.4 0.0
28/07:00pm SE 3 5 - - - - - - - 24.5 1010.1 0.0
28/06:30pm SE 3 6 - - - - - - - 25.2 1009.8 0.0
28/06:00pm SE 4 7 - - - - - - - 25.9 1009.4 0.0
28/05:30pm ESE 6 9 - - - - - - - 26.0 1009.6 0.0
28/05:00pm ESE 5 7 - - - - - - - 26.5 1009.6 0.0
28/04:30pm SE 3 6 - - - - - - - 27.3 1009.6 0.0
28/04:00pm E 6 9 - - - - - - - 26.8 1009.8 0.0
28/03:30pm ESE 5 7 - - - - - - - 26.9 1010.1 0.0
28/03:00pm ESE 6 9 - - - - - - - 27.2 1010.3 0.0
28/02:30pm E 4 8 - - - - - - - 27.3 1010.8 0.0
28/02:00pm SE 3 7 - - - - - - - 26.9 1011.4 0.0
28/01:30pm ESE 3 6 - - - - - - - 27.0 1011.7 0.0
28/01:00pm WSW 2 4 - - - - - - - 26.4 1012.0 0.0
28/12:30pm SSW 2 5 - - - - - - - 26.6 1012.4 0.0
28/12:00pm SSE 2 5 - - - - - - - 25.4 1012.6 0.0
28/11:30am SW 1 3 - - - - - - - 24.6 1012.9 0.0
28/11:00am SW 3 5 - - - - - - - 24.4 1013.0 0.0
28/10:30am SSE 3 7 - - - - - - - 24.4 1012.8 0.0
28/10:00am S 3 5 - - - - - - - 24.6 1012.7 0.0
28/09:30am SW 3 6 - - - - - - - 23.9 1012.6 0.0
28/09:00am SW 1 3 - - - - - - - 22.3 1012.6 0.0
28/08:30am CALM 0 0 - - - - - - - 21.5 1012.4 0.0
28/08:00am CALM 0 0 - - - - - - - 20.0 1012.1 0.0
28/07:30am CALM 0 0 - - - - - - - 18.5 1011.8 0.0
28/07:00am CALM 0 0 - - - - - - - 18.1 1011.3 0.0
28/06:30am CALM 0 0 - - - - - - - 18.2 1010.8 0.0
28/06:00am CALM 0 0 - - - - - - - 18.6 1010.5 0.0
28/05:30am CALM 0 0 - - - - - - - 18.9 1010.3 0.0
28/05:00am CALM 0 0 - - - - - - - 18.9 1010.4 0.0
28/04:30am CALM 0 0 - - - - - - - 19.4 1010.3 0.0
28/04:00am CALM 0 0 - - - - - - - 19.7 1010.3 0.0
28/03:30am CALM 0 0 - - - - - - - 19.6 1010.6 0.0
28/03:00am CALM 0 0 - - - - - - - 19.9 1010.9 0.0
28/02:30am CALM 0 0 - - - - - - - 20.1 1011.1 0.0
28/02:00am CALM 0 0 - - - - - - - 20.4 1011.2 0.0
28/01:30am CALM 0 0 - - - - - - - 20.6 1011.6 0.0
28/01:00am CALM 0 0 - - - - - - - 20.9 1011.9 0.0
28/12:30am CALM 0 0 - - - - - - - 21.1 1012.0 0.0
28/12:00am CALM 0 0 - - - - - - - 21.1 1012.1 0.0
 
Date/Time
EDT
Wind Sea
Height
m
Swell Vis
km
Cloud Weather Temp
°C
Press
MSL
hPa
Rain since
9am
mm
Dir  Spd
kts
Gust
kts
Height
m
Period
s
Dir
27/11:30pm CALM 0 0 - - - - - - - 21.0 1012.3 0.0
27/11:00pm CALM 0 0 - - - - - - - 21.0 1012.3 0.0
27/10:30pm CALM 0 0 - - - - - - - 21.1 1012.3 0.0
27/10:00pm CALM 0 0 - - - - - - - 21.1 1012.4 0.0
27/09:30pm CALM 0 0 - - - - - - - 21.6 1012.4 0.0
27/09:00pm CALM 0 0 - - - - - - - 21.7 1012.1 0.0
27/08:30pm CALM 0 0 - - - - - - - 21.7 1011.9 0.0
27/08:00pm CALM 0 0 - - - - - - - 21.7 1011.6 0.0
27/07:30pm CALM 0 0 - - - - - - - 22.0 1011.4 0.0
27/07:00pm CALM 0 0 - - - - - - - 22.1 1011.3 0.0
27/06:30pm CALM 0 0 - - - - - - - 22.0 1011.3 0.0
27/06:00pm ENE 1 2 - - - - - - - 22.2 1011.4 0.0
27/05:30pm NE 2 4 - - - - - - - 22.5 1011.2 0.0
27/05:00pm E 2 4 - - - - - - - 22.8 1011.1 0.0
27/04:30pm ENE 2 2 - - - - - - - 23.0 1011.6 0.0
27/04:00pm CALM 0 0 - - - - - - - 22.8 1011.8 0.0
27/03:30pm E 2 5 - - - - - - - 23.0 1012.0 0.0
27/03:00pm CALM 0 1 - - - - - - - 23.1 1012.5 0.0
27/02:30pm CALM 0 1 - - - - - - - 22.3 1012.7 0.0
27/02:00pm S 1 2 - - - - - - - 22.2 1013.1 0.0
27/01:30pm CALM 0 2 - - - - - - - 22.1 1013.4 0.0
27/01:00pm CALM 0 0 - - - - - - - 21.9 1013.5 0.0
27/12:30pm S 1 2 - - - - - - - 21.6 1014.1 0.0
27/12:00pm CALM 0 0 - - - - - - - 21.2 1014.5 0.0
27/11:30am CALM 0 0 - - - - - - - 21.2 1014.6 0.0
27/11:00am CALM 0 0 - - - - - - - 21.1 1014.3 0.0
27/10:30am CALM 0 0 - - - - - - - 21.0 1014.4 0.0
27/10:00am CALM 0 0 - - - - - - - 20.6 1014.3 0.0
27/09:30am CALM 0 1 - - - - - - - 20.4 1014.4 0.0
27/09:00am CALM 0 0 - - - - - - Recent precip. 20.1 1014.3 3.6
27/08:30am CALM 0 0 - - - - - - - 19.9 1014.1 3.6
27/08:00am CALM 0 0 - - - - - - - 19.7 1013.7 3.4
27/07:30am CALM 0 0 - - - - - - - 19.7 1013.9 3.0
27/07:00am CALM 0 0 - - - - - - - 19.7 1013.7 2.6
27/06:30am CALM 0 0 - - - - - - - 19.7 1013.2 2.6
27/06:00am CALM 0 0 - - - - - - Rain 19.6 1013.3 2.4
27/05:30am CALM 0 0 - - - - - - - 19.7 1013.1 2.2
27/05:00am CALM 0 0 - - - - - - - 19.7 1013.0 2.0
27/04:30am CALM 0 0 - - - - - - - 19.7 1012.9 1.8
27/04:00am CALM 0 0 - - - - - - - 19.7 1013.3 1.8
27/03:30am CALM 0 0 - - - - - - - 19.7 1013.5 1.6
27/03:00am CALM 0 0 - - - - - - Rain 19.9 1013.6 1.4
27/02:30am CALM 0 0 - - - - - - - 20.0 1013.8 1.0
27/02:00am SE 1 3 - - - - - - - 20.1 1013.9 0.8
27/01:30am SE 1 4 - - - - - - - 20.2 1014.1 0.6
27/01:00am SSE 1 3 - - - - - - - 20.3 1014.5 0.4
27/12:30am S 1 3 - - - - - - - 20.3 1014.3 0.4
27/12:00am SSW 1 4 - - - - - - Recent precip. 20.4 1014.7 0.4
 
Date/Time
EDT
Wind Sea
Height
m
Swell Vis
km
Cloud Weather Temp
°C
Press
MSL
hPa
Rain since
9am
mm
Dir  Spd
kts
Gust
kts
Height
m
Period
s
Dir
26/11:30pm S 1 3 - - - - - - - 20.5 1014.7 0.4
26/11:00pm S 2 3 - - - - - - - 20.8 1014.6 0.2
26/10:30pm ESE 5 10 - - - - - - - 21.5 1014.3 0.0
26/10:00pm ESE 2 5 - - - - - - - 22.8 1013.9 0.0
26/09:30pm S 1 2 - - - - - - - 22.8 1013.7 0.0
26/09:00pm SSE 2 5 - - - - - - - 22.8 1013.1 0.0
26/08:30pm SE 4 9 - - - - - - - 23.0 1012.5 0.0
26/08:00pm ESE 3 6 - - - - - - - 23.1 1011.9 0.0
26/07:30pm ESE 5 7 - - - - - - - 23.3 1011.2 0.0
26/07:00pm ESE 4 6 - - - - - - - 23.6 1010.6 0.0
26/06:30pm ESE 4 7 - - - - - - - 23.9 1010.3 0.0
26/06:00pm E 4 8 - - - - - - - 24.3 1009.8 0.0
26/05:30pm ESE 5 8 - - - - - - - 25.8 1009.4 0.0
26/05:00pm ESE 6 9 - - - - - - - 25.8 1009.2 0.0
26/04:30pm ESE 6 9 - - - - - - - 26.2 1009.1 0.0

Other formats

Comma delimited format used in spreadsheet applications
http://www.bom.gov.au/fwo/IDN60701/IDN60701.95767.axf

JavaScript Object Notation format (JSON) in row-major order
http://www.bom.gov.au/fwo/IDN60701/IDN60701.95767.json

Data quality

Most of these data are generated automatically and are frequently updated. Quality checks on data are not normally performed. It is possible for incorrect values to appear. Refer to information at About Latest Weather Observations and please check the disclaimer before using these data.